First Clarity — A8RM8 — position and weather

sailwx.info

Track history (hours):
 
Tides and Currents Weather Stations Pressure Air Temp Water Temp Dewpoint Dewpoint Depression Visibility Wind Speed Wind Dir Waves Ship Positions

First Clarity

Last reported at 2014-Aug-29 20:03 UTC. Time now 2014-Sep-02 23:55 UTC.
Position N 34°29' E 138°31'.

Length 104 m; draft 5.7 m.

Type: Cargo ship. MMSI: 636014129.

Date/timePositionNaut miles runAvg speedWind from/ knotsBaromVisibWave heightAir tempDewpointWater temp
2014-Aug-29 20:03N 34°29' E 138°31'36 9.5
2014-Aug-29 16:15N 34°47' E 139°10'1110.8
2014-Aug-29 15:16N 34°54' E 139°19'710.5
2014-Aug-29 14:33N 34°58' E 139°27'1010.3
2014-Aug-29 13:33N 35°03' E 139°38'1110.7
2014-Aug-29 12:33N 35°11' E 139°46'1111.1
2014-Aug-29 11:33N 35°22' E 139°42'4 3.5
2014-Aug-29 10:33N 35°24' E 139°38'0 0.0
2014-Aug-29 09:33N 35°24' E 139°38'0 0.0
2014-Aug-29 08:33N 35°24' E 139°38'0 0.0
2014-Aug-29 07:33N 35°24' E 139°38'0 0.0
2014-Aug-29 06:33N 35°24' E 139°38'0 0.0
2014-Aug-29 05:33N 35°24' E 139°38'0 0.0
2014-Aug-29 04:33N 35°24' E 139°38'0 0.0
2014-Aug-29 03:33N 35°24' E 139°38'0 0.0
2014-Aug-29 02:33N 35°24' E 139°38'0 0.0
2014-Aug-29 01:27N 35°24' E 139°38'0 0.0
2014-Aug-29 00:33N 35°24' E 139°38'0 0.0
2014-Aug-28 23:27N 35°24' E 139°38'0 0.1
2014-Aug-28 22:33N 35°24' E 139°38'2 1.5
2014-Aug-28 21:31N 35°23' E 139°40'0 0.0
2014-Aug-28 20:31N 35°23' E 139°40'0 0.0
2014-Aug-28 19:31N 35°23' E 139°40'0 0.0
2014-Aug-28 18:31N 35°23' E 139°40'0 0.0
2014-Aug-28 17:31N 35°23' E 139°40'0 0.0
2014-Aug-28 16:31N 35°23' E 139°40'0 0.0
2014-Aug-28 15:31N 35°23' E 139°40'0 0.0
2014-Aug-28 14:31N 35°23' E 139°40'0 0.0
2014-Aug-28 13:31N 35°23' E 139°40'0 0.0
2014-Aug-28 12:31N 35°23' E 139°40'0 0.0
2014-Aug-28 11:31N 35°23' E 139°40'0 0.0
2014-Aug-28 10:31N 35°23' E 139°40'0 0.0
2014-Aug-28 09:31N 35°23' E 139°40'3 3.1
2014-Aug-28 08:33N 35°21' E 139°43'1010.4
2014-Aug-28 07:33N 35°12' E 139°47'10 9.9
2014-Aug-28 06:33N 35°02' E 139°42'1110.6
2014-Aug-28 05:33N 34°56' E 139°32'5510.4
2014-Aug-28 00:14N 34°30' E 138°33'  
Track history (hours):
 
Tides and Currents Weather Stations Pressure Air Temp Water Temp Dewpoint Dewpoint Depression Visibility Wind Speed Wind Dir Waves Ship Positions

First Clarity

Last reported at 2014-Aug-29 20:03 UTC. Time now 2014-Sep-02 23:55 UTC.
Position N 34°29' E 138°31'.

Length 104 m; draft 5.7 m.

Type: Cargo ship. MMSI: 636014129.

Date/timePositionNaut miles runAvg speedWind from/ knotsBaromVisibWave heightAir tempDewpointWater temp
2014-Aug-29 20:03N 34°29' E 138°31'36 9.5
2014-Aug-29 16:15N 34°47' E 139°10'1110.8
2014-Aug-29 15:16N 34°54' E 139°19'710.5
2014-Aug-29 14:33N 34°58' E 139°27'1010.3
2014-Aug-29 13:33N 35°03' E 139°38'1110.7
2014-Aug-29 12:33N 35°11' E 139°46'1111.1
2014-Aug-29 11:33N 35°22' E 139°42'4 3.5
2014-Aug-29 10:33N 35°24' E 139°38'0 0.0
2014-Aug-29 09:33N 35°24' E 139°38'0 0.0
2014-Aug-29 08:33N 35°24' E 139°38'0 0.0
2014-Aug-29 07:33N 35°24' E 139°38'0 0.0
2014-Aug-29 06:33N 35°24' E 139°38'0 0.0
2014-Aug-29 05:33N 35°24' E 139°38'0 0.0
2014-Aug-29 04:33N 35°24' E 139°38'0 0.0
2014-Aug-29 03:33N 35°24' E 139°38'0 0.0
2014-Aug-29 02:33N 35°24' E 139°38'0 0.0
2014-Aug-29 01:27N 35°24' E 139°38'0 0.0
2014-Aug-29 00:33N 35°24' E 139°38'0 0.0
2014-Aug-28 23:27N 35°24' E 139°38'0 0.1
2014-Aug-28 22:33N 35°24' E 139°38'2 1.5
2014-Aug-28 21:31N 35°23' E 139°40'0 0.0
2014-Aug-28 20:31N 35°23' E 139°40'0 0.0
2014-Aug-28 19:31N 35°23' E 139°40'0 0.0
2014-Aug-28 18:31N 35°23' E 139°40'0 0.0
2014-Aug-28 17:31N 35°23' E 139°40'0 0.0
2014-Aug-28 16:31N 35°23' E 139°40'0 0.0
2014-Aug-28 15:31N 35°23' E 139°40'0 0.0
2014-Aug-28 14:31N 35°23' E 139°40'0 0.0
2014-Aug-28 13:31N 35°23' E 139°40'0 0.0
2014-Aug-28 12:31N 35°23' E 139°40'0 0.0
2014-Aug-28 11:31N 35°23' E 139°40'0 0.0
2014-Aug-28 10:31N 35°23' E 139°40'0 0.0
2014-Aug-28 09:31N 35°23' E 139°40'3 3.1
2014-Aug-28 08:33N 35°21' E 139°43'1010.4
2014-Aug-28 07:33N 35°12' E 139°47'10 9.9
2014-Aug-28 06:33N 35°02' E 139°42'1110.6
2014-Aug-28 05:33N 34°56' E 139°32'5510.4
2014-Aug-28 00:14N 34°30' E 138°33'  

Dump ship's entire track history